Time;durP1;ratioP1;P1;durP2;ratioP2;P2;SDS_P1;SDS_P2;PMS_P1;PMS_P2;Temp;Humidity;BMP_temperature;BMP_pressure;BME280_temperature;BME280_humidity;BME280_pressure;Samples;Min_cycle;Max_cycle;Signal;HPM_P1;HPM_P2
2022/10/10 00:02:25;;;;;;;22.98;16.38;;;;;;;13.77;63.56;96185.19;4970344;28;20567;-80
2022/10/10 00:04:51;;;;;;;21.70;17.45;;;;;;;13.78;63.47;96202.22;4971069;28;20034;-80
2022/10/10 00:07:18;;;;;;;21.00;17.45;;;;;;;13.71;63.21;96197.53;4938999;28;20445;-80
2022/10/10 00:09:44;;;;;;;22.42;18.80;;;;;;;13.67;63.68;96208.84;4970357;28;20385;-80
2022/10/10 00:12:09;;;;;;;24.42;19.25;;;;;;;13.64;63.62;96217.28;4954485;28;20429;-80
2022/10/10 00:14:35;;;;;;;22.08;19.25;;;;;;;13.57;64.17;96212.59;4987397;28;20410;-79
2022/10/10 00:17:00;;;;;;;24.52;19.98;;;;;;;13.53;64.31;96210.44;4988072;28;20520;-79
2022/10/10 00:19:25;;;;;;;24.70;19.08;;;;;;;13.52;63.73;96211.44;4970170;28;20496;-80
2022/10/10 00:21:51;;;;;;;24.63;20.00;;;;;;;13.47;64.08;96207.41;4970527;28;20030;-80
2022/10/10 00:24:16;;;;;;;28.90;22.63;;;;;;;13.40;65.15;96206.41;4987817;28;20331;-80
2022/10/10 00:26:42;;;;;;;27.38;20.52;;;;;;;13.38;64.92;96208.44;4970069;28;20449;-80
2022/10/10 00:29:07;;;;;;;24.98;18.35;;;;;;;13.27;64.70;96206.16;4970546;28;20030;-80
2022/10/10 00:31:32;;;;;;;22.63;18.77;;;;;;;13.21;64.32;96203.16;4986744;28;20030;-79
2022/10/10 00:33:58;;;;;;;23.15;18.55;;;;;;;13.17;64.43;96209.88;4988045;28;20026;-80
2022/10/10 00:36:23;;;;;;;24.92;18.95;;;;;;;13.16;64.38;96202.81;4987215;28;20019;-79
2022/10/10 00:38:49;;;;;;;23.30;18.95;;;;;;;13.17;64.18;96201.78;4987538;28;20023;-80
2022/10/10 00:41:14;;;;;;;25.27;20.08;;;;;;;13.19;64.63;96204.31;4987376;28;20030;-80
2022/10/10 00:43:40;;;;;;;25.40;21.02;;;;;;;13.17;65.02;96200.97;4987444;28;20053;-79
2022/10/10 00:46:05;;;;;;;27.15;18.88;;;;;;;13.10;63.59;96200.81;4970056;28;20449;-79
2022/10/10 00:48:36;;;;;;;22.75;18.67;;;;;;;13.01;63.90;96201.88;4987715;28;20037;-79
2022/10/10 00:51:12;;;;;;;23.77;18.20;;;;;;;12.98;64.33;96206.59;4954605;28;20043;-80
2022/10/10 00:53:43;;;;;;;22.45;18.38;;;;;;;12.97;64.60;96202.22;4986762;28;20085;-81
2022/10/10 00:56:09;;;;;;;22.60;17.70;;;;;;;12.98;64.46;96201.19;4954828;28;20448;-79
2022/10/10 00:58:34;;;;;;;21.73;17.63;;;;;;;12.98;64.89;96198.50;4953511;28;20481;-79
2022/10/10 01:01:00;;;;;;;22.40;17.58;;;;;;;12.94;65.15;96202.56;4969848;28;20033;-80
2022/10/10 01:03:25;;;;;;;22.10;16.63;;;;;;;12.87;65.38;96201.56;4969669;28;20394;-80
2022/10/10 01:05:51;;;;;;;21.70;17.88;;;;;;;12.82;65.12;96210.16;4969377;28;20030;-80
2022/10/10 01:08:17;;;;;;;25.52;17.38;;;;;;;12.81;65.15;96208.50;4937844;28;20117;-79
2022/10/10 01:11:06;;;;;;;23.58;17.70;;;;;;;12.80;65.21;96212.19;4968877;28;20116;-79
2022/10/10 01:13:59;;;;;;;22.45;18.48;;;;;;;12.72;65.07;96204.13;4940223;28;20038;-80
2022/10/10 01:17:05;;;;;;;23.85;19.08;;;;;;;12.65;65.15;96205.81;4987018;28;20528;-80
2022/10/10 01:20:27;;;;;;;21.90;18.15;;;;;;;12.63;65.50;96206.00;4971489;28;20241;-80
2022/10/10 01:23:16;;;;;;;22.30;18.27;;;;;;;12.60;65.57;96206.34;4896212;29;20036;-80
2022/10/10 01:26:17;;;;;;;22.25;18.08;;;;;;;12.54;66.00;96207.84;4965514;28;20042;-80
2022/10/10 01:28:49;;;;;;;22.30;18.60;;;;;;;12.50;66.33;96217.28;4953366;28;20129;-79
2022/10/10 01:31:15;;;;;;;27.60;19.35;;;;;;;12.47;66.46;96210.41;4969776;28;20418;-80
2022/10/10 01:34:05;;;;;;;23.67;19.25;;;;;;;12.40;66.16;96205.88;4953416;28;20448;-80
2022/10/10 01:36:42;;;;;;;25.63;20.00;;;;;;;12.44;66.06;96197.28;4968984;28;20594;-79
2022/10/10 01:39:30;;;;;;;24.80;17.98;;;;;;;12.42;66.15;96196.63;4953645;28;20042;-79
2022/10/10 01:42:02;;;;;;;24.75;19.45;;;;;;;12.39;66.23;96199.66;4952494;28;20516;-80
2022/10/10 01:44:28;;;;;;;25.30;20.13;;;;;;;12.34;67.04;96193.94;4953550;28;20108;-80
2022/10/10 01:46:53;;;;;;;24.65;19.38;;;;;;;12.23;67.18;96195.13;4952891;28;20035;-79
2022/10/10 01:49:21;;;;;;;27.20;19.23;;;;;;;12.26;66.90;96204.69;4968820;28;20039;-79
2022/10/10 01:52:04;;;;;;;23.48;18.85;;;;;;;12.22;66.75;96199.66;4969593;28;20485;-79
2022/10/10 01:55:05;;;;;;;24.38;20.83;;;;;;;12.24;67.17;96204.84;4985955;28;20124;-79
2022/10/10 01:57:34;;;;;;;24.92;19.58;;;;;;;12.23;67.23;96205.88;4971416;28;20089;-79
2022/10/10 02:00:02;;;;;;;25.02;19.63;;;;;;;12.23;67.12;96205.88;4969107;28;20108;-80
2022/10/10 02:02:46;;;;;;;24.90;19.38;;;;;;;12.27;66.93;96209.06;4968594;28;20061;-80
2022/10/10 02:05:28;;;;;;;25.35;19.98;;;;;;;12.27;67.44;96207.19;4986346;28;20033;-80
2022/10/10 02:08:08;;;;;;;25.07;20.50;;;;;;;12.26;67.38;96210.06;4986371;28;20117;-80
2022/10/10 02:10:36;;;;;;;24.08;19.95;;;;;;;12.25;67.69;96209.25;4953071;28;20413;-81
2022/10/10 02:13:02;;;;;;;26.92;19.52;;;;;;;12.27;67.63;96209.06;4952980;28;20093;-79
2022/10/10 02:15:29;;;;;;;25.77;21.48;;;;;;;12.29;67.71;96215.09;4952467;28;20038;-79
2022/10/10 02:17:55;;;;;;;28.33;22.02;;;;;;;12.27;68.34;96217.97;4953232;28;20547;-79
2022/10/10 02:20:24;;;;;;;31.08;21.77;;;;;;;12.29;68.34;96212.41;4952278;28;20027;-79
2022/10/10 02:22:50;;;;;;;32.33;20.42;;;;;;;12.31;67.13;96213.09;4953223;28;20057;-79
2022/10/10 02:25:16;;;;;;;22.83;18.45;;;;;;;12.28;65.64;96222.34;4952901;28;20033;-79
2022/10/10 02:27:57;;;;;;;21.75;18.23;;;;;;;12.27;65.75;96220.66;4952911;28;20076;-79
2022/10/10 02:30:22;;;;;;;20.40;16.58;;;;;;;12.25;64.23;96220.00;4986316;28;20034;-79
2022/10/10 02:33:00;;;;;;;23.40;17.42;;;;;;;12.22;64.62;96215.78;4968672;28;20030;-79
2022/10/10 02:35:31;;;;;;;25.95;17.65;;;;;;;12.20;63.50;96223.16;4968721;28;20033;-80
2022/10/10 02:37:58;;;;;;;24.00;17.67;;;;;;;12.15;63.27;96217.47;4968397;28;20077;-79
2022/10/10 02:40:26;;;;;;;26.48;18.23;;;;;;;12.11;63.68;96213.41;4952820;28;20034;-79
2022/10/10 02:42:51;;;;;;;23.15;17.23;;;;;;;12.09;63.91;96215.47;4952721;28;20382;-80
2022/10/10 02:45:17;;;;;;;25.60;17.45;;;;;;;12.08;64.24;96224.50;4968520;28;20145;-81
2022/10/10 02:47:43;;;;;;;23.83;18.92;;;;;;;12.07;65.93;96230.88;4952909;28;20117;-80
2022/10/10 02:50:09;;;;;;;22.83;18.50;;;;;;;12.07;65.44;96229.03;4948699;28;20117;-80
2022/10/10 02:52:34;;;;;;;23.55;17.77;;;;;;;12.11;65.19;96225.03;4966728;28;20394;-79
2022/10/10 02:54:59;;;;;;;25.27;17.58;;;;;;;12.13;65.40;96219.47;4969843;28;20468;-78
2022/10/10 02:57:25;;;;;;;25.88;18.85;;;;;;;12.10;65.41;96227.88;4952501;28;20486;-80
2022/10/10 02:59:50;;;;;;;24.45;18.13;;;;;;;12.13;65.55;96221.31;4970001;28;20387;-79
2022/10/10 03:02:16;;;;;;;22.10;19.13;;;;;;;12.10;65.26;96223.34;4968770;28;20038;-79
2022/10/10 03:04:42;;;;;;;22.02;16.60;;;;;;;12.06;65.17;96226.53;4969008;28;20023;-79
2022/10/10 03:07:07;;;;;;;22.13;15.90;;;;;;;12.04;65.23;96228.53;4968610;28;20060;-79
2022/10/10 03:09:33;;;;;;;22.98;16.63;;;;;;;12.02;65.45;96225.16;4969893;28;20063;-79
2022/10/10 03:11:58;;;;;;;21.85;16.63;;;;;;;12.03;65.67;96224.13;4952171;28;20828;-79
2022/10/10 03:14:24;;;;;;;21.73;15.68;;;;;;;12.04;65.42;96228.53;4969970;28;20513;-79
2022/10/10 03:16:49;;;;;;;23.77;17.13;;;;;;;12.03;65.35;96222.28;4968455;28;20466;-79
2022/10/10 03:19:14;;;;;;;20.48;16.42;;;;;;;11.97;65.92;96231.03;4970289;28;20019;-79
2022/10/10 03:21:40;;;;;;;24.23;17.45;;;;;;;11.94;65.08;96231.38;4968315;28;20078;-81
2022/10/10 03:24:05;;;;;;;18.35;15.70;;;;;;;11.93;64.78;96235.88;4968455;28;20035;-80
2022/10/10 03:26:31;;;;;;;21.75;14.55;;;;;;;11.94;64.45;96240.28;4968205;28;20026;-79
2022/10/10 03:28:56;;;;;;;19.95;14.85;;;;;;;11.92;64.44;96246.81;4968336;28;20026;-79
2022/10/10 03:31:22;;;;;;;18.40;14.70;;;;;;;11.88;64.20;96246.31;4969820;28;20433;-78
2022/10/10 03:33:47;;;;;;;21.40;15.27;;;;;;;11.88;64.37;96246.31;4969430;28;20030;-80
2022/10/10 03:36:13;;;;;;;22.65;16.45;;;;;;;11.90;64.38;96241.59;4969881;28;20073;-80
2022/10/10 03:38:39;;;;;;;20.98;16.35;;;;;;;11.90;64.74;96236.22;4968965;28;20023;-80
2022/10/10 03:41:04;;;;;;;25.02;16.73;;;;;;;11.89;64.32;96242.63;4968557;28;20051;-80
2022/10/10 03:43:30;;;;;;;22.27;17.60;;;;;;;11.81;64.31;96238.06;4973790;28;20695;-79
2022/10/10 03:45:55;;;;;;;23.38;16.92;;;;;;;11.81;63.90;96239.91;4973184;28;20047;-80
2022/10/10 03:48:20;;;;;;;20.23;16.67;;;;;;;11.77;64.20;96244.75;4969382;28;20034;-81
2022/10/10 03:50:46;;;;;;;23.25;16.77;;;;;;;11.73;64.29;96244.28;4982540;28;20046;-81
2022/10/10 03:53:11;;;;;;;20.98;16.55;;;;;;;11.71;64.74;96240.03;4971378;28;20027;-81
2022/10/10 03:55:40;;;;;;;20.17;16.15;;;;;;;11.65;65.37;96243.41;4987980;28;20117;-79
2022/10/10 03:58:06;;;;;;;24.10;16.60;;;;;;;11.64;65.50;96242.53;4988530;28;20033;-80
2022/10/10 04:00:32;;;;;;;24.65;17.25;;;;;;;11.63;65.51;96240.88;4970641;28;20022;-80
2022/10/10 04:02:58;;;;;;;19.13;16.33;;;;;;;11.60;65.21;96249.25;4971255;28;20109;-79
2022/10/10 04:05:23;;;;;;;21.33;17.10;;;;;;;11.58;64.97;96249.44;4987426;28;20018;-79
2022/10/10 04:07:48;;;;;;;22.38;17.52;;;;;;;11.49;64.75;96248.53;4988084;28;20034;-79
2022/10/10 04:10:14;;;;;;;23.10;16.67;;;;;;;11.46;64.73;96251.56;4988304;28;20046;-79
2022/10/10 04:12:39;;;;;;;23.67;17.63;;;;;;;11.41;64.51;96245.00;4987421;28;20026;-80
2022/10/10 04:15:05;;;;;;;23.48;17.33;;;;;;;11.38;64.93;96246.19;4970870;28;20030;-80
2022/10/10 04:17:31;;;;;;;19.60;16.10;;;;;;;11.34;65.78;96250.16;4970415;28;20097;-80
2022/10/10 04:19:56;;;;;;;22.67;14.93;;;;;;;11.37;66.15;96256.06;4970409;28;20049;-80
2022/10/10 04:22:21;;;;;;;22.38;17.02;;;;;;;11.34;66.62;96250.16;4970439;28;20413;-79
2022/10/10 04:24:47;;;;;;;23.00;16.80;;;;;;;11.32;67.10;96250.34;4988048;28;20037;-79
2022/10/10 04:27:12;;;;;;;27.48;19.35;;;;;;;11.28;67.86;96248.13;4987672;28;20030;-81
2022/10/10 04:29:39;;;;;;;29.73;20.08;;;;;;;11.12;68.48;96255.94;4970360;28;20037;-79
2022/10/10 04:32:04;;;;;;;30.17;19.88;;;;;;;11.11;69.00;96253.41;4988032;28;20034;-80
2022/10/10 04:34:30;;;;;;;30.45;20.75;;;;;;;11.04;69.31;96244.34;4969627;28;20049;-80
2022/10/10 04:36:55;;;;;;;35.13;22.15;;;;;;;10.96;69.81;96243.28;4987506;28;20022;-79
2022/10/10 04:39:20;;;;;;;39.22;22.13;;;;;;;10.83;71.02;96245.56;4969959;28;20018;-80
2022/10/10 04:41:49;;;;;;;36.28;22.15;;;;;;;10.86;70.96;96250.63;4970264;28;20026;-80
2022/10/10 04:44:15;;;;;;;35.35;22.13;;;;;;;10.87;71.17;96258.50;4987940;28;20035;-79
2022/10/10 04:46:41;;;;;;;36.35;22.73;;;;;;;10.86;71.08;96247.94;4987815;28;20030;-79
2022/10/10 04:49:06;;;;;;;36.65;22.25;;;;;;;10.91;70.95;96256.34;4987246;28;20061;-79
2022/10/10 04:51:32;;;;;;;38.25;22.45;;;;;;;10.94;70.98;96250.66;4969506;28;20030;-80
2022/10/10 04:53:57;;;;;;;33.95;22.52;;;;;;;10.95;71.11;96257.72;4969796;28;20742;-79
2022/10/10 04:56:24;;;;;;;37.45;22.73;;;;;;;10.94;70.84;96266.78;4969492;28;20038;-78
2022/10/10 04:58:50;;;;;;;38.20;23.73;;;;;;;11.02;70.84;96257.06;4953965;28;20022;-79
2022/10/10 05:01:15;;;;;;;32.95;22.70;;;;;;;11.06;70.61;96263.81;4969369;28;20037;-79
2022/10/10 05:03:41;;;;;;;37.08;24.27;;;;;;;11.09;70.68;96267.00;4970110;28;20572;-80
2022/10/10 05:06:06;;;;;;;35.92;21.75;;;;;;;11.07;70.40;96266.34;4969276;28;20034;-80
2022/10/10 05:08:32;;;;;;;36.83;22.95;;;;;;;11.09;70.98;96266.19;4969697;28;20033;-79
2022/10/10 05:10:57;;;;;;;37.63;22.40;;;;;;;11.10;71.09;96265.16;4986846;28;20528;-80
2022/10/10 05:13:22;;;;;;;35.65;22.73;;;;;;;11.11;71.41;96272.22;4969328;28;20501;-79
2022/10/10 05:15:52;;;;;;;39.00;22.55;;;;;;;11.12;71.49;96266.69;4986944;28;20049;-80
2022/10/10 05:18:18;;;;;;;35.17;22.42;;;;;;;11.21;71.11;96278.31;4986402;28;20030;-80
2022/10/10 05:20:46;;;;;;;33.50;21.25;;;;;;;11.24;71.16;96280.69;4969798;28;20454;-79
2022/10/10 05:23:12;;;;;;;36.65;21.88;;;;;;;11.32;70.87;96276.34;4986490;28;20034;-80
2022/10/10 05:25:38;;;;;;;33.47;22.70;;;;;;;11.36;70.93;96275.88;4969500;28;20053;-80
2022/10/10 05:28:03;;;;;;;31.27;20.02;;;;;;;11.45;70.40;96283.94;4953057;28;20393;-79
2022/10/10 05:30:28;;;;;;;28.98;20.75;;;;;;;11.48;70.12;96281.78;4986394;28;20477;-79
2022/10/10 05:32:54;;;;;;;31.17;20.33;;;;;;;11.54;70.09;96287.53;4969380;28;20033;-81
2022/10/10 05:35:19;;;;;;;30.77;20.58;;;;;;;11.53;70.25;96289.38;4968569;28;20019;-79
2022/10/10 05:37:45;;;;;;;32.50;21.73;;;;;;;11.58;69.94;96296.94;4969239;28;20353;-79
2022/10/10 05:40:10;;;;;;;28.40;20.13;;;;;;;11.54;70.43;96292.91;4986120;28;20100;-80
2022/10/10 05:42:36;;;;;;;29.63;20.75;;;;;;;11.57;70.53;96293.44;4986902;28;20030;-79
2022/10/10 05:45:01;;;;;;;31.63;21.33;;;;;;;11.64;70.30;96304.34;4986259;28;20022;-80
2022/10/10 05:47:27;;;;;;;28.92;19.55;;;;;;;11.64;70.25;96301.66;4969250;28;20089;-80
2022/10/10 05:49:52;;;;;;;33.20;20.08;;;;;;;11.67;70.68;96306.69;4933901;28;20046;-80
2022/10/10 05:52:17;;;;;;;28.88;19.58;;;;;;;11.73;70.73;96298.03;4966657;28;20119;-80
2022/10/10 05:54:43;;;;;;;33.83;20.90;;;;;;;11.80;70.51;96294.66;4967651;28;20026;-80
2022/10/10 05:57:08;;;;;;;33.00;21.00;;;;;;;11.87;70.52;96296.53;4966402;28;20114;-80
2022/10/10 05:59:34;;;;;;;30.02;20.30;;;;;;;11.95;70.49;96301.09;4967373;28;20026;-80
2022/10/10 06:01:59;;;;;;;27.65;20.25;;;;;;;12.04;69.90;96307.31;4965542;28;20140;-81
2022/10/10 06:04:25;;;;;;;36.88;20.88;;;;;;;12.06;70.09;96307.19;4933835;28;20470;-80
2022/10/10 06:06:50;;;;;;;32.08;21.30;;;;;;;12.13;69.94;96307.38;4965599;28;20038;-80
2022/10/10 06:09:16;;;;;;;30.17;21.73;;;;;;;12.15;70.33;96316.13;4965395;28;20026;-80
2022/10/10 06:11:41;;;;;;;31.27;21.15;;;;;;;12.16;70.00;96313.25;4965715;28;20026;-80
2022/10/10 06:14:07;;;;;;;28.60;21.27;;;;;;;12.27;69.65;96324.72;4949194;28;20026;-80
2022/10/10 06:16:34;;;;;;;29.60;20.17;;;;;;;12.27;69.38;96325.53;4949608;28;20030;-80
2022/10/10 06:18:59;;;;;;;26.58;19.90;;;;;;;12.39;69.51;96320.69;4949028;28;20031;-80
2022/10/10 06:21:24;;;;;;;30.17;21.35;;;;;;;12.46;69.29;96327.09;4965616;28;20463;-79
2022/10/10 06:23:50;;;;;;;31.63;19.77;;;;;;;12.58;68.75;96326.75;4965285;28;20034;-80
2022/10/10 06:26:16;;;;;;;30.00;19.20;;;;;;;12.63;68.60;96329.78;4949344;28;20031;-81
2022/10/10 06:28:41;;;;;;;25.23;17.65;;;;;;;12.76;68.07;96328.44;4951368;28;20058;-80
2022/10/10 06:31:07;;;;;;;28.00;19.42;;;;;;;12.81;68.21;96328.78;4952871;28;20030;-80
2022/10/10 06:33:33;;;;;;;35.65;19.02;;;;;;;12.77;68.27;96330.13;4969185;28;20023;-80
2022/10/10 06:35:58;;;;;;;30.92;19.15;;;;;;;12.90;68.22;96337.69;4969067;28;20525;-80
2022/10/10 06:38:24;;;;;;;35.33;19.23;;;;;;;12.98;67.71;96334.97;4953500;28;20630;-81
2022/10/10 06:40:49;;;;;;;30.70;19.75;;;;;;;13.00;68.07;96334.81;4952716;28;20097;-80
2022/10/10 06:43:15;;;;;;;35.85;20.58;;;;;;;13.02;68.15;96339.03;4953464;28;20053;-79
2022/10/10 06:45:42;;;;;;;33.13;20.25;;;;;;;13.19;68.00;96339.84;4952797;28;20042;-81
2022/10/10 06:48:11;;;;;;;34.72;19.45;;;;;;;13.32;67.82;96333.91;4969038;28;20027;-80
2022/10/10 06:50:37;;;;;;;32.63;20.55;;;;;;;13.38;67.81;96342.34;4952793;28;20046;-81
2022/10/10 06:53:02;;;;;;;30.60;19.30;;;;;;;13.32;67.72;96338.47;4952463;28;20038;-80
2022/10/10 06:55:27;;;;;;;37.28;21.33;;;;;;;13.42;67.99;96335.56;4970145;28;20031;-80
2022/10/10 06:57:53;;;;;;;32.47;19.33;;;;;;;13.33;67.76;96335.59;4968406;28;20482;-81
2022/10/10 07:00:18;;;;;;;33.47;18.73;;;;;;;13.40;67.41;96346.53;4969134;28;20030;-80
2022/10/10 07:02:44;;;;;;;31.92;20.13;;;;;;;13.44;67.32;96337.09;4968362;28;20035;-80
2022/10/10 07:05:10;;;;;;;28.85;19.25;;;;;;;13.58;67.15;96340.09;4952804;28;20109;-80
2022/10/10 07:07:37;;;;;;;33.70;19.88;;;;;;;13.67;67.00;96336.38;4968485;28;20457;-81
2022/10/10 07:10:02;;;;;;;31.17;20.73;;;;;;;13.78;66.87;96342.41;4952329;28;20034;-80
2022/10/10 07:12:28;;;;;;;31.65;19.92;;;;;;;13.89;66.56;96339.31;4968640;28;20030;-80
2022/10/10 07:14:53;;;;;;;28.63;18.42;;;;;;;13.97;66.58;96341.13;4969451;28;20077;-80
2022/10/10 07:17:19;;;;;;;28.38;18.80;;;;;;;13.91;66.67;96341.84;4969859;28;20098;-81
2022/10/10 07:19:44;;;;;;;26.63;19.00;;;;;;;14.05;66.47;96345.66;4969055;28;20043;-80
2022/10/10 07:22:10;;;;;;;33.00;19.52;;;;;;;14.21;65.97;96342.03;4970021;28;20035;-79
2022/10/10 07:24:35;;;;;;;24.23;18.90;;;;;;;14.29;66.08;96338.44;4969398;28;20027;-80
2022/10/10 07:27:02;;;;;;;31.27;20.25;;;;;;;14.45;65.92;96341.03;4968406;28;20410;-80
2022/10/10 07:29:29;;;;;;;27.75;20.02;;;;;;;14.49;65.57;96332.56;4968521;28;20494;-80
2022/10/10 07:31:54;;;;;;;30.15;19.10;;;;;;;14.44;64.99;96333.94;4969090;28;20031;-81
2022/10/10 07:34:20;;;;;;;26.25;19.50;;;;;;;14.33;65.37;96334.38;4968226;28;20362;-79
2022/10/10 07:36:49;;;;;;;44.15;22.52;;;;;;;14.40;66.08;96324.53;4951623;28;20026;-80
2022/10/10 07:39:17;;;;;;;61.25;30.13;;;;;;;14.49;65.67;96329.88;4969127;28;20097;-82
2022/10/10 07:41:43;;;;;;;59.40;29.77;;;;;;;14.58;65.07;96326.09;4967356;28;20023;-80
2022/10/10 07:44:08;;;;;;;45.40;25.27;;;;;;;14.52;64.99;96316.88;4968120;28;20042;-80
2022/10/10 07:46:34;;;;;;;50.47;25.23;;;;;;;14.64;64.43;96319.13;4951821;28;20462;-81
2022/10/10 07:48:59;;;;;;;32.90;19.13;;;;;;;14.85;62.80;96312.25;4967303;28;20534;-83
2022/10/10 07:51:24;;;;;;;34.75;18.67;;;;;;;15.02;62.78;96313.78;4987924;28;20505;-80
2022/10/10 07:53:51;;;;;;;35.75;19.35;;;;;;;15.06;62.15;96317.78;4988118;28;20038;-79
2022/10/10 07:56:16;;;;;;;32.58;18.25;;;;;;;15.08;62.46;96317.59;4955116;28;20100;-80
2022/10/10 07:58:41;;;;;;;28.15;16.92;;;;;;;15.03;62.25;96312.75;4987930;28;20030;-81
2022/10/10 08:01:09;;;;;;;29.95;17.08;;;;;;;15.00;62.82;96314.97;4988773;28;20030;-79
2022/10/10 08:03:35;;;;;;;24.27;14.48;;;;;;;15.03;62.14;96301.09;4954629;28;20449;-80
2022/10/10 08:06:05;;;;;;;24.05;15.23;;;;;;;15.16;61.88;96300.47;4954623;28;20505;-80
2022/10/10 08:08:30;;;;;;;31.40;14.88;;;;;;;15.11;62.32;96301.00;4955123;28;20026;-80
2022/10/10 08:10:57;;;;;;;22.30;13.48;;;;;;;15.17;62.30;96302.97;4954136;28;20049;-81
2022/10/10 08:13:22;;;;;;;18.92;13.55;;;;;;;15.22;62.43;96296.19;4988503;28;20026;-81
2022/10/10 08:15:51;;;;;;;18.13;12.88;;;;;;;15.26;61.61;96300.19;4954097;28;20042;-80
2022/10/10 08:18:17;;;;;;;20.25;13.32;;;;;;;15.33;61.90;96304.66;4970971;28;20031;-82
2022/10/10 08:20:42;;;;;;;19.88;13.13;;;;;;;15.46;62.07;96303.16;4970547;28;20033;-81
2022/10/10 08:23:07;;;;;;;22.77;13.60;;;;;;;15.54;61.33;96302.25;4970510;28;20038;-82
2022/10/10 08:25:33;;;;;;;19.30;13.63;;;;;;;15.61;61.11;96308.56;4954603;28;20092;-80
2022/10/10 08:27:58;;;;;;;20.95;13.43;;;;;;;15.63;61.24;96306.53;4987455;28;20018;-80
2022/10/10 08:30:24;;;;;;;19.40;12.90;;;;;;;15.68;61.23;96306.81;4988317;28;20027;-81
2022/10/10 08:32:49;;;;;;;17.17;13.00;;;;;;;15.80;61.30;96300.91;4987332;28;20057;-79
2022/10/10 08:35:15;;;;;;;19.67;13.25;;;;;;;15.88;61.36;96292.69;4987935;28;20076;-81
2022/10/10 08:37:40;;;;;;;21.10;13.57;;;;;;;16.05;61.33;96300.63;4987618;28;20218;-81
2022/10/10 08:40:06;;;;;;;18.45;14.32;;;;;;;16.05;60.58;96300.63;4987837;28;20401;-81
2022/10/10 08:42:40;;;;;;;16.55;13.02;;;;;;;16.14;60.27;96307.59;4954030;28;20825;-80
2022/10/10 08:45:26;;;;;;;16.23;13.05;;;;;;;16.11;59.55;96305.28;4953883;28;20034;-80
2022/10/10 08:48:01;;;;;;;18.63;14.07;;;;;;;16.01;59.97;96302.88;4969675;28;20054;-81
2022/10/10 08:50:48;;;;;;;23.02;13.07;;;;;;;16.21;59.53;96306.81;4969388;28;20073;-81
2022/10/10 08:53:21;;;;;;;16.90;11.77;;;;;;;16.40;59.38;96298.09;4972480;28;20042;-81
2022/10/10 08:55:46;;;;;;;;;;;;;;;16.71;58.06;96300.66;4988109;28;20026;-81
2022/10/10 08:58:25;;;;;;;17.65;10.13;;;;;;;16.87;57.39;96305.81;4986636;28;19925;-80
2022/10/10 09:00:58;;;;;;;12.48;9.48;;;;;;;16.98;56.87;96300.88;4954154;28;20030;-80
2022/10/10 09:03:23;;;;;;;;;;;;;;;16.97;56.84;96305.47;4954422;28;20464;-80
2022/10/10 09:06:11;;;;;;;15.85;9.27;;;;;;;16.99;57.25;96307.97;4987557;28;19956;-80
2022/10/10 09:08:36;;;;;;;13.02;9.85;;;;;;;17.06;55.50;96311.56;4987124;28;20180;-80
2022/10/10 09:11:30;;;;;;;13.82;10.10;;;;;;;17.10;55.32;96315.63;4986637;28;20449;-81
2022/10/10 09:14:23;;;;;;;13.45;8.95;;;;;;;17.14;55.38;96316.03;4969750;28;20440;-81
2022/10/10 09:17:11;;;;;;;11.45;8.90;;;;;;;17.27;55.29;96307.16;4986999;28;20034;-81
2022/10/10 09:19:38;;;;;;;13.18;9.30;;;;;;;17.27;55.67;96315.28;4971168;28;20084;-81
2022/10/10 09:22:08;;;;;;;14.88;9.43;;;;;;;17.34;56.05;96316.19;4987005;28;20417;-81
2022/10/10 09:24:52;;;;;;;15.35;9.45;;;;;;;17.45;55.04;96311.22;4968967;28;20106;-81
2022/10/10 09:27:23;;;;;;;16.00;9.10;;;;;;;17.61;54.76;96316.34;4986876;28;20053;-81
2022/10/10 09:30:25;;;;;;;13.80;9.30;;;;;;;17.72;54.12;96324.94;4953322;28;20034;-82
2022/10/10 09:32:56;;;;;;;11.70;8.05;;;;;;;17.71;54.27;96315.16;4986195;28;20062;-81
2022/10/10 09:35:29;;;;;;;11.05;8.20;;;;;;;17.81;54.51;96315.63;4969297;28;20069;-80
2022/10/10 09:38:36;;;;;;;14.35;7.47;;;;;;;17.82;54.00;96319.16;4968684;28;20023;-81
2022/10/10 09:41:14;;;;;;;14.55;7.97;;;;;;;17.89;53.93;96328.19;4969242;28;20046;-81
2022/10/10 09:43:39;;;;;;;14.98;8.98;;;;;;;17.96;53.90;96320.06;4953625;28;20065;-81
2022/10/10 09:46:04;;;;;;;13.90;8.85;;;;;;;17.89;53.62;96318.13;4952820;28;20030;-80
2022/10/10 09:48:35;;;;;;;13.18;7.85;;;;;;;17.91;53.84;96318.78;4969024;28;20034;-80
2022/10/10 09:51:06;;;;;;;12.27;7.45;;;;;;;17.97;53.30;96317.16;4952771;28;20057;-79
2022/10/10 09:53:31;;;;;;;13.65;7.13;;;;;;;18.03;51.63;96305.50;4953360;28;20034;-80
2022/10/10 09:55:57;;;;;;;14.75;7.85;;;;;;;18.07;52.88;96311.31;4936896;28;20049;-81
2022/10/10 09:58:32;;;;;;;9.35;6.60;;;;;;;18.08;50.95;96309.47;4952515;28;20474;-80
2022/10/10 10:01:10;;;;;;;7.63;6.50;;;;;;;18.09;50.30;96306.53;4953318;28;20046;-80
2022/10/10 10:03:36;;;;;;;7.60;6.13;;;;;;;18.09;50.58;96300.28;4987039;28;20072;-81
2022/10/10 10:06:01;;;;;;;10.93;6.10;;;;;;;18.04;49.80;96306.31;4973247;28;20033;-81
2022/10/10 10:08:29;;;;;;;11.25;6.85;;;;;;;17.99;49.59;96304.19;4956358;28;20023;-80
2022/10/10 10:10:58;;;;;;;10.27;6.45;;;;;;;17.98;50.01;96298.97;4990778;28;20113;-80
2022/10/10 10:13:31;;;;;;;9.00;6.55;;;;;;;18.03;50.80;96291.91;4973430;28;20679;-81
2022/10/10 10:16:01;;;;;;;8.43;6.50;;;;;;;18.16;50.26;96295.75;4957039;28;20023;-81
2022/10/10 10:18:27;;;;;;;11.10;7.00;;;;;;;18.17;49.68;96297.41;4975748;28;20026;-81
2022/10/10 10:21:14;;;;;;;8.80;6.38;;;;;;;18.23;49.57;96293.88;4973554;28;20488;-80
2022/10/10 10:23:41;;;;;;;10.90;6.82;;;;;;;18.25;48.86;96288.25;4972651;28;20049;-80
2022/10/10 10:26:23;;;;;;;8.30;6.18;;;;;;;18.36;49.20;96295.78;4989993;28;20656;-81
2022/10/10 10:28:49;;;;;;;8.10;5.93;;;;;;;18.36;50.11;96289.53;4972735;28;20034;-81
2022/10/10 10:31:34;;;;;;;7.32;6.40;;;;;;;18.40;49.40;96291.63;4940817;28;20028;-81
2022/10/10 10:34:28;;;;;;;12.38;6.65;;;;;;;18.47;48.34;96288.94;4957231;28;20494;-80
2022/10/10 10:37:11;;;;;;;7.97;6.47;;;;;;;18.45;48.53;96292.88;4975350;28;20022;-80
2022/10/10 10:39:49;;;;;;;11.65;6.53;;;;;;;18.58;48.18;96276.63;4974614;28;20489;-81
2022/10/10 10:42:29;;;;;;;10.73;6.85;;;;;;;18.66;48.63;96278.28;4972005;28;20412;-81
2022/10/10 10:44:57;;;;;;;9.73;6.30;;;;;;;18.71;48.07;96277.66;4972667;28;20018;-80
2022/10/10 10:47:29;;;;;;;15.85;6.85;;;;;;;18.71;48.35;96281.22;4989368;28;20105;-80
2022/10/10 10:50:21;;;;;;;11.32;6.88;;;;;;;18.82;48.56;96274.31;4972412;28;20081;-80
2022/10/10 10:52:46;;;;;;;7.25;5.80;;;;;;;18.82;47.09;96277.03;4944187;28;20476;-81
2022/10/10 10:55:26;;;;;;;11.55;6.28;;;;;;;18.79;47.30;96274.75;4971853;28;20401;-81
2022/10/10 10:58:18;;;;;;;8.05;5.53;;;;;;;18.73;47.71;96270.16;4955808;28;20027;-80
2022/10/10 11:01:04;;;;;;;9.70;6.05;;;;;;;18.74;47.74;96259.06;4974642;28;20185;-80
2022/10/10 11:03:29;;;;;;;7.70;6.03;;;;;;;18.78;48.57;96248.63;4971381;28;20034;-80
2022/10/10 11:05:55;;;;;;;7.75;5.53;;;;;;;18.81;47.67;96237.34;4989594;28;20027;-80
2022/10/10 11:08:26;;;;;;;9.02;5.63;;;;;;;18.92;47.81;96243.16;4988992;28;20038;-80
2022/10/10 11:11:00;;;;;;;7.30;5.68;;;;;;;18.90;47.40;96235.22;4971658;28;20141;-80
2022/10/10 11:13:50;;;;;;;6.90;5.78;;;;;;;18.88;47.42;96232.72;4989081;28;20084;-81
2022/10/10 11:16:23;;;;;;;9.73;6.20;;;;;;;18.83;47.94;96242.56;4972101;28;20561;-81
2022/10/10 11:19:11;;;;;;;8.80;5.13;;;;;;;18.92;47.76;96240.44;4971536;28;20030;-81
2022/10/10 11:21:39;;;;;;;9.73;5.70;;;;;;;18.93;47.10;96239.41;4971059;28;20026;-80
2022/10/10 11:24:27;;;;;;;12.00;5.55;;;;;;;18.90;47.85;96240.66;4955848;28;20536;-81
2022/10/10 11:26:55;;;;;;;10.95;6.07;;;;;;;18.93;47.07;96242.13;4948565;28;20038;-81
2022/10/10 11:29:22;;;;;;;10.88;6.10;;;;;;;18.90;47.36;96244.22;4955624;28;20516;-81
2022/10/10 11:31:50;;;;;;;7.63;5.63;;;;;;;18.81;47.63;96236.50;4955500;28;20088;-80